Time;durP1;ratioP1;P1;durP2;ratioP2;P2;SDS_P1;SDS_P2;PMS_P1;PMS_P2;Temp;Humidity;BMP_temperature;BMP_pressure;BME280_temperature;BME280_humidity;BME280_pressure;Samples;Min_cycle;Max_cycle;Signal;HPM_P1;HPM_P2
2022/04/25 00:00:43;;;;;;;3.13;2.58;;;19.70;95.70;;;;;;4241416;27;20229;-77
2022/04/25 00:02:47;;;;;;;3.15;2.95;;;19.70;95.70;;;;;;4246922;27;20220;-77
2022/04/25 00:04:49;;;;;;;3.13;2.83;;;19.70;95.80;;;;;;4246914;27;20250;-77
2022/04/25 00:06:51;;;;;;;3.38;3.08;;;19.70;95.60;;;;;;4242547;27;20262;-77
2022/04/25 00:08:53;;;;;;;3.17;2.80;;;19.70;95.70;;;;;;4245235;27;20213;-77
2022/04/25 00:10:56;;;;;;;3.13;2.83;;;19.70;95.80;;;;;;4240262;27;20216;-77
2022/04/25 00:12:58;;;;;;;3.72;3.00;;;19.70;95.70;;;;;;4241836;27;20205;-78
2022/04/25 00:15:01;;;;;;;3.22;2.92;;;19.70;95.80;;;;;;4241380;27;20650;-77
2022/04/25 00:17:04;;;;;;;2.78;2.58;;;19.70;95.80;;;;;;4244646;27;20241;-77
2022/04/25 00:19:08;;;;;;;3.17;2.50;;;19.70;95.80;;;;;;4240959;27;20233;-77
2022/04/25 00:21:10;;;;;;;3.03;2.60;;;19.70;96.10;;;;;;4243133;27;20273;-77
2022/04/25 00:23:13;;;;;;;2.83;2.53;;;19.60;95.70;;;;;;4236942;27;20462;-77
2022/04/25 00:25:15;;;;;;;2.72;2.50;;;19.60;95.70;;;;;;4242688;27;20213;-78
2022/04/25 00:27:18;;;;;;;3.25;2.80;;;19.60;95.70;;;;;;4241858;27;20637;-77
2022/04/25 00:29:21;;;;;;;3.47;2.88;;;19.60;95.70;;;;;;4242822;27;20266;-77
2022/04/25 00:31:24;;;;;;;3.10;2.80;;;19.70;95.70;;;;;;4242853;27;20220;-79
2022/04/25 00:33:27;;;;;;;3.78;2.30;;;19.60;95.50;;;;;;4244611;27;20294;-77
2022/04/25 00:35:30;;;;;;;3.55;2.72;;;19.60;95.70;;;;;;4242759;27;20263;-77
2022/04/25 00:37:33;;;;;;;4.70;3.10;;;19.70;95.70;;;;;;4241899;27;20302;-77
2022/04/25 00:39:35;;;;;;;4.10;3.10;;;19.60;95.60;;;;;;4239612;27;20273;-77
2022/04/25 00:41:37;;;;;;;2.88;2.67;;;19.60;95.60;;;;;;4240763;27;20222;-77
2022/04/25 00:43:40;;;;;;;3.63;2.55;;;19.60;95.70;;;;;;4242281;27;20217;-77
2022/04/25 00:45:42;;;;;;;3.22;2.90;;;19.60;95.60;;;;;;4242138;27;20217;-77
2022/04/25 00:47:46;;;;;;;2.65;2.42;;;19.60;95.60;;;;;;4239734;27;20263;-77
2022/04/25 00:49:48;;;;;;;3.13;2.80;;;19.60;95.50;;;;;;4242029;27;20271;-77
2022/04/25 00:51:52;;;;;;;2.88;2.63;;;19.60;95.60;;;;;;4241900;27;20213;-77
2022/04/25 00:53:55;;;;;;;4.20;2.90;;;19.60;95.70;;;;;;4242050;27;20213;-77
2022/04/25 00:55:59;;;;;;;3.20;2.90;;;19.60;95.60;;;;;;4241870;27;20224;-77
2022/04/25 00:58:01;;;;;;;4.43;2.92;;;19.60;95.50;;;;;;4240750;27;20286;-77
2022/04/25 01:00:07;;;;;;;3.72;2.80;;;19.60;95.50;;;;;;4241596;27;20224;-77
2022/04/25 01:02:09;;;;;;;3.65;2.50;;;19.60;95.60;;;;;;4242858;27;20657;-77
2022/04/25 01:04:12;;;;;;;2.78;2.50;;;19.60;95.50;;;;;;4243061;27;20209;-77
2022/04/25 01:06:14;;;;;;;2.83;2.50;;;19.60;95.60;;;;;;4241080;27;20212;-77
2022/04/25 01:08:18;;;;;;;3.63;2.53;;;19.60;95.50;;;;;;4242171;27;20262;-77
2022/04/25 01:10:20;;;;;;;3.38;2.70;;;19.60;95.50;;;;;;4242595;27;20267;-77
2022/04/25 01:12:22;;;;;;;3.60;2.60;;;19.60;95.60;;;;;;4243107;27;20274;-78
2022/04/25 01:14:25;;;;;;;2.72;2.50;;;19.50;95.50;;;;;;4240991;27;20293;-77
2022/04/25 01:16:28;;;;;;;3.17;2.80;;;19.50;95.50;;;;;;4244197;27;20310;-77
2022/04/25 01:18:30;;;;;;;3.70;2.80;;;19.60;95.60;;;;;;4244008;27;20282;-77
2022/04/25 01:20:32;;;;;;;3.30;2.67;;;19.50;95.50;;;;;;4241148;27;20216;-78
2022/04/25 01:22:41;;;;;;;4.38;3.00;;;19.60;95.60;;;;;;4243937;27;20297;-77
2022/04/25 01:27:17;;;;;;;3.40;2.40;;;19.50;95.50;;;;;;4234657;27;20597;-77
2022/04/25 01:29:19;;;;;;;2.88;2.67;;;19.50;95.50;;;;;;4241607;27;20250;-77
2022/04/25 01:31:22;;;;;;;3.80;2.88;;;19.50;95.50;;;;;;4243667;27;20612;-77
2022/04/25 01:33:27;;;;;;;3.00;2.70;;;19.50;95.80;;;;;;4245410;27;20272;-77
2022/04/25 01:35:30;;;;;;;4.28;2.75;;;19.50;95.50;;;;;;4249675;27;20209;-77
2022/04/25 01:37:33;;;;;;;2.95;2.75;;;19.50;95.50;;;;;;4245962;27;20297;-77
2022/04/25 01:39:36;;;;;;;3.53;2.25;;;19.50;95.50;;;;;;4243635;27;20220;-77
2022/04/25 01:41:40;;;;;;;3.15;2.88;;;19.50;95.50;;;;;;4245152;27;20265;-77
2022/04/25 01:43:42;;;;;;;3.85;2.45;;;19.50;95.90;;;;;;4244563;27;20212;-77
2022/04/25 01:45:44;;;;;;;3.22;2.78;;;19.40;95.50;;;;;;4243414;27;20996;-77
2022/04/25 01:47:47;;;;;;;2.95;2.50;;;19.50;95.60;;;;;;4241067;27;20267;-77
2022/04/25 01:49:49;;;;;;;2.92;2.50;;;19.50;95.60;;;;;;4241128;27;20221;-77
2022/04/25 01:51:52;;;;;;;3.95;2.65;;;19.40;95.60;;;;;;4247685;27;20216;-77
2022/04/25 01:53:54;;;;;;;2.97;2.38;;;19.50;95.60;;;;;;4236520;27;20602;-77
2022/04/25 01:55:57;;;;;;;2.85;2.55;;;19.40;95.60;;;;;;4238991;27;20205;-77
2022/04/25 01:58:01;;;;;;;3.33;2.85;;;19.50;95.50;;;;;;4248072;27;20257;-77
2022/04/25 02:00:03;;;;;;;2.95;2.75;;;19.50;95.50;;;;;;4249623;27;20261;-77
2022/04/25 02:02:06;;;;;;;4.32;2.63;;;19.40;95.40;;;;;;4244110;27;20624;-77
2022/04/25 02:04:08;;;;;;;2.97;2.67;;;19.40;95.90;;;;;;4244158;27;20262;-77
2022/04/25 02:06:11;;;;;;;2.50;2.30;;;19.50;95.60;;;;;;4250274;27;20257;-77
2022/04/25 02:08:14;;;;;;;3.78;2.83;;;19.40;95.50;;;;;;4247075;27;20618;-77
2022/04/25 02:10:16;;;;;;;3.08;2.78;;;19.50;95.60;;;;;;4244690;27;20566;-77
2022/04/25 02:12:18;;;;;;;3.17;2.67;;;19.40;95.50;;;;;;4247522;27;20270;-77
2022/04/25 02:14:22;;;;;;;3.35;2.88;;;19.40;95.50;;;;;;4243991;27;20258;-77
2022/04/25 02:16:26;;;;;;;2.95;2.72;;;19.40;95.50;;;;;;4239956;27;20246;-77
2022/04/25 02:18:28;;;;;;;3.88;2.35;;;19.40;95.50;;;;;;4241257;27;20236;-77
2022/04/25 02:20:30;;;;;;;3.10;2.58;;;19.40;95.60;;;;;;4243611;27;20209;-77
2022/04/25 02:22:35;;;;;;;3.55;2.50;;;19.40;95.50;;;;;;4244002;27;20283;-77
2022/04/25 02:24:38;;;;;;;2.92;2.60;;;19.40;96.00;;;;;;4242864;27;20262;-76
2022/04/25 02:26:40;;;;;;;2.97;2.40;;;19.40;95.50;;;;;;4246145;27;20249;-77
2022/04/25 02:28:43;;;;;;;3.08;2.63;;;19.40;95.50;;;;;;4246710;27;20274;-78
2022/04/25 02:30:46;;;;;;;3.65;2.70;;;19.40;95.60;;;;;;4250197;27;20258;-77
2022/04/25 02:32:49;;;;;;;2.90;2.60;;;19.40;95.60;;;;;;4245222;27;20651;-77
2022/04/25 02:34:52;;;;;;;3.33;2.70;;;19.30;95.60;;;;;;4244950;27;20613;-77
2022/04/25 02:36:55;;;;;;;3.70;2.58;;;19.40;95.60;;;;;;4248892;27;20592;-77
2022/04/25 02:38:58;;;;;;;4.10;2.80;;;19.40;95.50;;;;;;4245250;27;20285;-77
2022/04/25 02:41:06;;;;;;;2.60;2.40;;;19.40;95.50;;;;;;4246272;27;20278;-77
2022/04/25 02:43:09;;;;;;;2.60;2.40;;;19.40;95.60;;;;;;4243056;27;20249;-77
2022/04/25 02:45:12;;;;;;;2.88;2.28;;;19.40;96.00;;;;;;4242533;27;20213;-77
2022/04/25 02:47:15;;;;;;;4.82;2.92;;;19.30;95.50;;;;;;4243006;27;20213;-77
2022/04/25 02:49:18;;;;;;;3.15;2.70;;;19.40;95.50;;;;;;4241623;27;20258;-77
2022/04/25 02:51:20;;;;;;;2.92;2.60;;;19.40;95.60;;;;;;4243888;27;20298;-77
2022/04/25 02:53:24;;;;;;;3.53;2.83;;;19.30;95.50;;;;;;4243448;27;20217;-77
2022/04/25 02:55:26;;;;;;;3.92;2.50;;;19.30;95.60;;;;;;4242263;27;20258;-77
2022/04/25 02:57:28;;;;;;;5.43;2.97;;;19.30;95.60;;;;;;4245296;27;20209;-77
2022/04/25 02:59:30;;;;;;;4.35;2.65;;;19.30;95.40;;;;;;4244040;27;20237;-77
2022/04/25 03:01:33;;;;;;;3.78;2.60;;;19.30;95.40;;;;;;4243345;27;20613;-77
2022/04/25 03:03:38;;;;;;;3.28;2.90;;;19.30;95.50;;;;;;4246195;27;20279;-78
2022/04/25 03:05:42;;;;;;;2.95;2.50;;;19.30;95.50;;;;;;4242692;27;20234;-77
2022/04/25 03:07:45;;;;;;;2.90;2.50;;;19.30;95.40;;;;;;4242438;27;20611;-77
2022/04/25 03:09:47;;;;;;;3.00;2.55;;;19.30;95.50;;;;;;4240578;27;20221;-77
2022/04/25 03:11:50;;;;;;;3.55;2.90;;;19.30;95.40;;;;;;4239074;27;20705;-77
2022/04/25 03:13:53;;;;;;;2.90;2.50;;;19.30;95.50;;;;;;4240719;27;20294;-77
2022/04/25 03:15:56;;;;;;;3.28;2.47;;;19.30;95.40;;;;;;4236008;27;20266;-77
2022/04/25 03:17:58;;;;;;;3.78;2.60;;;19.30;95.50;;;;;;4243535;27;20624;-77
2022/04/25 03:20:03;;;;;;;3.90;2.28;;;19.30;95.60;;;;;;4241867;27;20217;-77
2022/04/25 03:22:05;;;;;;;3.35;2.60;;;19.30;95.60;;;;;;4240613;27;20213;-77
2022/04/25 03:24:07;;;;;;;3.00;2.70;;;19.20;95.60;;;;;;4239271;27;20225;-77
2022/04/25 03:26:10;;;;;;;2.95;2.65;;;19.30;95.50;;;;;;4240538;27;20221;-77
2022/04/25 03:28:12;;;;;;;2.97;2.53;;;19.30;95.50;;;;;;4245414;27;20261;-77
2022/04/25 03:30:15;;;;;;;3.92;2.75;;;19.30;95.60;;;;;;4238781;27;20271;-77
2022/04/25 03:32:17;;;;;;;3.83;2.70;;;19.30;95.70;;;;;;4242452;27;20224;-77
2022/04/25 03:34:19;;;;;;;3.00;2.70;;;19.20;95.50;;;;;;4244896;27;20220;-77
2022/04/25 03:36:23;;;;;;;4.60;2.58;;;19.30;95.60;;;;;;4243926;27;20289;-77
2022/04/25 03:38:26;;;;;;;2.75;2.50;;;19.20;95.40;;;;;;4240432;27;20241;-77
2022/04/25 03:40:28;;;;;;;5.03;2.70;;;19.20;95.50;;;;;;4240657;27;20349;-77
2022/04/25 03:42:31;;;;;;;3.60;2.70;;;19.20;95.60;;;;;;4243411;27;20228;-77
2022/04/25 03:44:33;;;;;;;2.47;2.28;;;19.20;95.60;;;;;;4242003;27;20225;-77
2022/04/25 03:46:35;;;;;;;5.20;2.72;;;19.20;95.60;;;;;;4243831;27;20286;-77
2022/04/25 03:48:40;;;;;;;3.00;2.40;;;19.20;95.60;;;;;;4239423;27;20262;-77
2022/04/25 03:50:42;;;;;;;3.10;2.70;;;19.20;95.60;;;;;;4241820;27;20217;-77
2022/04/25 03:52:46;;;;;;;4.15;2.75;;;19.20;95.60;;;;;;4240225;27;20212;-77
2022/04/25 03:57:12;;;;;;;3.65;2.80;;;19.20;95.60;;;;;;4246399;27;20189;-77
2022/04/25 03:59:14;;;;;;;2.53;2.30;;;19.10;95.60;;;;;;4242029;27;20236;-77
2022/04/25 04:01:16;;;;;;;3.60;2.42;;;19.10;95.60;;;;;;4241687;27;20238;-77
2022/04/25 04:03:20;;;;;;;3.30;2.60;;;19.10;95.70;;;;;;4241630;27;20979;-77
2022/04/25 04:05:22;;;;;;;2.83;2.50;;;19.10;95.70;;;;;;4245384;27;20221;-77
2022/04/25 04:07:24;;;;;;;5.25;2.70;;;19.10;96.10;;;;;;4245297;27;20563;-77
2022/04/25 04:09:47;;;;;;;3.08;2.40;;;19.10;95.70;;;;;;4241755;27;20645;-77
2022/04/25 04:11:49;;;;;;;3.10;2.75;;;19.10;95.60;;;;;;4241756;27;20206;-77
2022/04/25 04:13:52;;;;;;;2.88;2.58;;;19.20;95.70;;;;;;4236498;27;20213;-77
2022/04/25 04:15:56;;;;;;;4.15;2.75;;;19.10;95.60;;;;;;4244067;27;20221;-77
2022/04/25 04:17:58;;;;;;;3.53;2.53;;;19.10;95.70;;;;;;4241428;27;20216;-77
2022/04/25 04:20:02;;;;;;;4.78;2.58;;;19.10;95.60;;;;;;4241159;27;20229;-77
2022/04/25 04:22:05;;;;;;;4.45;2.75;;;19.10;95.60;;;;;;4243768;27;20209;-77
2022/04/25 04:24:09;;;;;;;3.00;2.70;;;19.10;95.60;;;;;;4246415;27;20233;-77
2022/04/25 04:26:13;;;;;;;3.63;2.85;;;19.10;95.60;;;;;;4246284;27;20225;-77
2022/04/25 04:28:15;;;;;;;3.92;2.40;;;19.10;95.60;;;;;;4243438;27;20273;-77
2022/04/25 04:30:18;;;;;;;3.95;2.80;;;19.10;95.60;;;;;;4244208;27;20621;-77
2022/04/25 04:32:22;;;;;;;3.42;2.63;;;19.10;95.60;;;;;;4239891;27;20221;-77
2022/04/25 04:34:25;;;;;;;2.50;2.30;;;19.10;95.70;;;;;;4238299;27;20258;-77
2022/04/25 04:36:27;;;;;;;3.05;2.60;;;19.10;95.60;;;;;;4242472;27;20601;-77
2022/04/25 04:38:29;;;;;;;3.50;2.38;;;19.10;95.70;;;;;;4241264;27;20269;-77
2022/04/25 04:40:31;;;;;;;3.97;2.80;;;19.10;95.70;;;;;;4241766;27;20225;-77
2022/04/25 04:42:35;;;;;;;3.17;2.78;;;19.00;95.60;;;;;;4240627;27;20213;-77
2022/04/25 04:44:37;;;;;;;3.42;2.55;;;19.10;95.60;;;;;;4244206;27;20712;-77
2022/04/25 04:46:40;;;;;;;2.80;2.45;;;19.10;95.70;;;;;;4243582;27;20228;-77
2022/04/25 04:48:42;;;;;;;4.15;2.60;;;19.10;95.70;;;;;;4242678;27;20292;-77
2022/04/25 04:50:45;;;;;;;3.35;2.67;;;19.10;95.70;;;;;;4243886;27;20348;-77
2022/04/25 04:52:49;;;;;;;2.50;2.30;;;19.10;96.00;;;;;;4242842;27;20270;-77
2022/04/25 04:54:51;;;;;;;2.92;2.63;;;19.10;95.70;;;;;;4239412;27;20661;-77
2022/04/25 04:56:53;;;;;;;3.78;2.63;;;19.10;95.60;;;;;;4238341;27;20654;-77
2022/04/25 04:58:58;;;;;;;3.15;2.63;;;19.10;95.70;;;;;;4239978;27;20242;-77
2022/04/25 05:01:01;;;;;;;3.42;2.50;;;19.10;95.70;;;;;;4242651;27;20209;-77
2022/04/25 05:03:04;;;;;;;3.70;2.90;;;19.10;95.70;;;;;;4235582;27;20221;-77
2022/04/25 05:05:07;;;;;;;3.35;2.47;;;19.10;95.70;;;;;;4240310;27;20277;-77
2022/04/25 05:07:10;;;;;;;3.47;2.88;;;19.10;95.80;;;;;;4244908;27;20213;-77
2022/04/25 05:09:12;;;;;;;2.78;2.42;;;19.10;95.80;;;;;;4240855;27;20212;-77
2022/04/25 05:11:15;;;;;;;2.72;2.47;;;19.00;95.70;;;;;;4240054;27;20213;-77
2022/04/25 05:13:17;;;;;;;3.33;2.38;;;19.00;95.80;;;;;;4245307;27;20229;-77
2022/04/25 05:15:21;;;;;;;3.53;2.80;;;19.00;95.70;;;;;;4243481;27;20209;-77
2022/04/25 05:17:24;;;;;;;3.05;2.70;;;19.10;95.80;;;;;;4241320;27;20265;-77
2022/04/25 05:19:26;;;;;;;3.88;2.78;;;19.10;95.80;;;;;;4241492;27;20241;-77
2022/04/25 05:21:28;;;;;;;3.50;2.45;;;19.10;95.90;;;;;;4242704;27;20246;-77
2022/04/25 05:23:31;;;;;;;3.17;2.75;;;19.00;95.80;;;;;;4243931;27;20217;-77
2022/04/25 05:25:35;;;;;;;3.40;2.63;;;19.10;95.80;;;;;;4239047;27;20217;-77
2022/04/25 05:27:38;;;;;;;4.18;2.58;;;19.10;95.80;;;;;;4239634;27;20216;-77
2022/04/25 05:29:40;;;;;;;3.08;2.60;;;19.10;95.70;;;;;;4240129;27;20209;-77
2022/04/25 05:31:44;;;;;;;2.65;2.45;;;19.10;95.70;;;;;;4242153;27;20859;-77
2022/04/25 05:33:46;;;;;;;4.80;2.78;;;19.10;95.80;;;;;;4241136;27;20297;-77
2022/04/25 05:35:49;;;;;;;3.72;2.90;;;19.10;95.80;;;;;;4243953;27;20216;-77
2022/04/25 05:37:51;;;;;;;4.32;2.80;;;19.10;95.70;;;;;;4244202;27;20258;-77
2022/04/25 05:39:54;;;;;;;3.17;2.80;;;19.10;95.70;;;;;;4245801;27;20241;-77
2022/04/25 05:41:56;;;;;;;4.28;2.70;;;19.10;95.70;;;;;;4247666;27;20220;-77
2022/04/25 05:43:59;;;;;;;4.43;2.90;;;19.10;95.70;;;;;;4240318;27;20262;-77
2022/04/25 05:46:01;;;;;;;3.17;2.42;;;19.10;95.70;;;;;;4241950;27;20717;-77
2022/04/25 05:51:58;;;;;;;3.22;2.83;;;19.10;95.70;;;;;;4242444;27;20256;-77
2022/04/25 05:52:49;;;;;;;3.33;2.45;;;19.10;95.60;;;;;;4238681;27;20189;-77
2022/04/25 05:54:51;;;;;;;4.07;2.75;;;19.10;95.60;;;;;;4237222;27;20263;-77
2022/04/25 05:56:54;;;;;;;3.67;2.97;;;19.20;95.70;;;;;;4235777;27;20274;-77
2022/04/25 05:58:56;;;;;;;4.93;2.70;;;19.10;95.50;;;;;;4242301;27;20205;-77
2022/04/25 06:00:59;;;;;;;3.78;3.00;;;19.20;95.60;;;;;;4243871;27;20269;-77
2022/04/25 06:03:02;;;;;;;3.10;2.67;;;19.20;95.70;;;;;;4242821;27;20254;-77
2022/04/25 06:05:07;;;;;;;4.65;2.40;;;19.20;95.60;;;;;;4245607;27;20630;-77
2022/04/25 06:07:09;;;;;;;3.65;2.97;;;19.20;95.70;;;;;;4243591;27;20208;-77
2022/04/25 06:09:12;;;;;;;3.50;2.83;;;19.20;95.70;;;;;;4245762;27;20242;-77
2022/04/25 06:11:14;;;;;;;5.10;2.50;;;19.20;95.60;;;;;;4250951;27;20257;-77
2022/04/25 06:13:18;;;;;;;4.18;2.83;;;19.20;95.70;;;;;;4245028;27;20213;-77
2022/04/25 06:15:25;;;;;;;3.83;2.53;;;19.30;95.80;;;;;;4244895;27;20634;-77
2022/04/25 06:17:28;;;;;;;3.08;2.50;;;19.30;95.80;;;;;;4243721;27;20266;-77
2022/04/25 06:19:30;;;;;;;2.90;2.53;;;19.30;95.80;;;;;;4246265;27;20254;-77
2022/04/25 06:21:34;;;;;;;2.88;2.40;;;19.30;95.90;;;;;;4244942;27;20221;-77
2022/04/25 06:23:36;;;;;;;4.18;2.78;;;19.30;95.80;;;;;;4246735;27;20225;-77
2022/04/25 06:25:39;;;;;;;4.78;3.05;;;19.30;95.80;;;;;;4238822;27;20209;-77
2022/04/25 06:27:41;;;;;;;4.05;3.13;;;19.30;95.70;;;;;;4244048;27;20266;-77
2022/04/25 06:29:46;;;;;;;3.72;2.80;;;19.30;95.70;;;;;;4239912;27;20209;-77
2022/04/25 06:31:48;;;;;;;3.47;2.40;;;19.30;95.80;;;;;;4251716;27;20255;-77
2022/04/25 06:33:50;;;;;;;3.08;2.55;;;19.30;95.80;;;;;;4244811;27;20282;-77
2022/04/25 06:35:53;;;;;;;3.25;2.38;;;19.30;95.90;;;;;;4244419;27;20262;-77
2022/04/25 06:37:57;;;;;;;2.97;2.65;;;19.40;96.30;;;;;;4245174;27;20213;-77
2022/04/25 06:39:59;;;;;;;3.10;2.50;;;19.40;95.90;;;;;;4245181;27;20364;-76
2022/04/25 06:42:02;;;;;;;2.60;2.40;;;19.30;95.90;;;;;;4244993;27;20322;-76
2022/04/25 06:44:06;;;;;;;4.30;2.15;;;19.30;95.60;;;;;;4245561;27;20261;-76
2022/04/25 06:46:08;;;;;;;3.15;2.63;;;19.40;95.80;;;;;;4244953;27;20633;-75
2022/04/25 06:48:10;;;;;;;5.93;2.90;;;19.30;95.60;;;;;;4242493;27;20221;-75
2022/04/25 06:50:13;;;;;;;5.07;2.85;;;19.20;95.90;;;;;;4244421;27;20209;-74
2022/04/25 06:52:16;;;;;;;7.07;3.10;;;19.30;95.80;;;;;;4238325;27;20236;-75
2022/04/25 06:54:20;;;;;;;6.07;2.67;;;19.30;95.80;;;;;;4235388;27;20213;-77
2022/04/25 06:56:23;;;;;;;3.38;2.67;;;19.30;95.90;;;;;;4237154;27;20217;-76
2022/04/25 06:58:26;;;;;;;55.25;7.53;;;19.30;96.00;;;;;;4241531;27;20995;-78
2022/04/25 07:00:28;;;;;;;38.58;6.95;;;19.40;95.90;;;;;;4237981;27;20233;-77
2022/04/25 07:02:31;;;;;;;32.75;6.13;;;19.30;96.90;;;;;;4239315;27;20286;-76
2022/04/25 07:04:33;;;;;;;22.05;4.25;;;19.30;97.00;;;;;;4245140;27;20749;-76
2022/04/25 07:06:36;;;;;;;18.17;4.03;;;19.30;97.40;;;;;;4236833;27;21021;-76
2022/04/25 07:08:38;;;;;;;16.63;3.55;;;19.40;96.70;;;;;;4247218;27;20606;-76
2022/04/25 07:10:42;;;;;;;22.65;4.28;;;19.40;97.00;;;;;;4240207;27;20253;-76
2022/04/25 07:12:45;;;;;;;14.27;3.38;;;19.40;97.30;;;;;;4244248;27;20638;-77
2022/04/25 07:14:48;;;;;;;13.20;3.10;;;19.40;97.30;;;;;;4238790;27;20551;-77
2022/04/25 07:16:52;;;;;;;7.38;3.08;;;19.40;97.30;;;;;;4239971;27;20258;-76
2022/04/25 07:18:55;;;;;;;8.50;3.03;;;19.50;97.40;;;;;;4232505;27;20626;-77
2022/04/25 07:20:57;;;;;;;11.18;3.40;;;19.40;97.40;;;;;;4238326;27;20274;-76
2022/04/25 07:30:04;;;;;;;12.25;3.83;;;19.30;98.40;;;;;;4233109;27;20652;-76
2022/04/25 07:32:07;;;;;;;12.10;4.60;;;19.40;98.70;;;;;;4234594;27;20217;-75
2022/04/25 07:34:10;;;;;;;10.98;3.70;;;19.50;98.90;;;;;;4227713;27;20270;-75
2022/04/25 07:36:14;;;;;;;15.07;4.30;;;19.50;99.10;;;;;;4235274;27;20585;-74
2022/04/25 07:38:16;;;;;;;10.38;3.58;;;19.50;99.70;;;;;;4239586;27;20205;-77
2022/04/25 07:40:19;;;;;;;13.00;3.92;;;19.50;99.80;;;;;;4238866;27;20316;-78
2022/04/25 07:42:21;;;;;;;10.40;3.95;;;19.60;99.70;;;;;;4221242;27;20297;-77
2022/04/25 07:44:26;;;;;;;13.45;3.70;;;19.70;99.80;;;;;;4214383;27;21014;-76
2022/04/25 07:46:29;;;;;;;11.70;4.07;;;19.70;99.70;;;;;;4214003;27;20253;-77
2022/04/25 07:48:32;;;;;;;13.70;3.60;;;19.70;99.80;;;;;;4217061;27;20214;-76
2022/04/25 07:50:35;;;;;;;13.35;4.18;;;19.80;99.90;;;;;;4213198;27;20217;-76
2022/04/25 07:52:38;;;;;;;12.02;3.45;;;19.80;99.70;;;;;;4211938;27;20243;-77
2022/04/25 07:54:40;;;;;;;9.95;3.88;;;19.80;99.90;;;;;;4207520;27;20217;-77
2022/04/25 07:56:43;;;;;;;10.15;3.35;;;19.90;99.90;;;;;;4211791;27;20237;-77
2022/04/25 07:58:46;;;;;;;7.60;3.38;;;19.90;99.90;;;;;;4214089;27;22607;-76
2022/04/25 08:00:50;;;;;;;10.18;4.15;;;19.90;99.90;;;;;;4212194;27;20237;-76
2022/04/25 08:02:52;;;;;;;8.60;3.50;;;20.00;99.90;;;;;;4214686;27;20301;-76
2022/04/25 08:04:54;;;;;;;13.23;3.50;;;20.00;99.90;;;;;;4212557;27;20225;-76
2022/04/25 08:06:57;;;;;;;11.40;3.50;;;20.00;99.90;;;;;;4212315;27;20214;-78
2022/04/25 08:09:01;;;;;;;15.57;4.05;;;20.00;99.90;;;;;;4212457;27;20213;-75
2022/04/25 08:11:04;;;;;;;12.57;4.15;;;20.00;99.90;;;;;;4222274;27;20210;-75
2022/04/25 08:18:04;;;;;;;8.85;3.53;;;20.10;99.90;;;;;;4215477;27;20210;-76
2022/04/25 08:20:08;;;;;;;8.40;3.17;;;20.10;99.90;;;;;;4210854;27;20235;-76
2022/04/25 08:22:10;;;;;;;10.45;3.13;;;20.10;99.90;;;;;;4216140;27;20286;-87
2022/04/25 08:24:13;;;;;;;11.00;3.42;;;20.20;99.90;;;;;;4234920;27;20603;-83
2022/04/25 08:26:15;;;;;;;12.10;4.53;;;20.10;99.90;;;;;;4232744;27;20238;-81
2022/04/25 08:28:19;;;;;;;15.38;3.42;;;20.10;99.90;;;;;;4229048;27;20600;-77
2022/04/25 08:30:22;;;;;;;12.35;3.55;;;20.20;99.90;;;;;;4210989;27;20221;-83
2022/04/25 08:32:24;;;;;;;6.03;3.17;;;20.20;99.90;;;;;;4223479;27;20242;-80
2022/04/25 08:34:28;;;;;;;10.38;3.60;;;20.20;99.90;;;;;;4217048;28;20213;-83
2022/04/25 08:36:31;;;;;;;10.20;3.58;;;20.10;99.90;;;;;;4204159;28;20268;-84
2022/04/25 08:38:33;;;;;;;8.65;3.47;;;20.20;99.90;;;;;;4207294;27;20207;-80
2022/04/25 08:40:38;;;;;;;8.60;3.20;;;20.30;99.90;;;;;;4198065;28;20303;-76
2022/04/25 08:42:40;;;;;;;8.20;3.92;;;20.30;99.90;;;;;;4213319;27;20214;-79
2022/04/25 08:44:43;;;;;;;11.98;3.78;;;20.30;99.90;;;;;;4200715;28;20218;-82
2022/04/25 08:46:49;;;;;;;12.65;3.60;;;20.30;99.90;;;;;;4195674;28;20961;-81
2022/04/25 08:48:53;;;;;;;11.60;3.63;;;20.30;99.90;;;;;;4198962;28;20222;-78
2022/04/25 08:50:58;;;;;;;8.98;3.50;;;20.30;99.90;;;;;;4199305;28;20245;-78
2022/04/25 08:53:00;;;;;;;12.02;3.58;;;20.30;99.90;;;;;;4206058;28;20199;-78
2022/04/25 08:55:04;;;;;;;7.38;3.13;;;20.40;99.90;;;;;;4194869;28;20216;-78
2022/04/25 08:57:06;;;;;;;7.72;2.88;;;20.40;99.90;;;;;;4193430;28;20225;-78
2022/04/25 08:59:10;;;;;;;11.73;3.38;;;20.40;99.90;;;;;;4196235;27;20215;-78
2022/04/25 09:01:16;;;;;;;11.93;3.42;;;20.40;99.90;;;;;;4196246;28;20234;-77
2022/04/25 09:03:18;;;;;;;9.85;3.40;;;20.40;99.90;;;;;;4191673;28;21963;-82
2022/04/25 09:05:21;;;;;;;8.57;3.55;;;20.40;99.90;;;;;;4193222;28;20214;-76
2022/04/25 09:07:25;;;;;;;11.02;3.63;;;20.50;99.90;;;;;;4189874;28;20321;-78
2022/04/25 09:09:27;;;;;;;9.27;3.85;;;20.50;99.90;;;;;;4191009;28;21095;-76
2022/04/25 09:13:50;;;;;;;10.65;3.53;;;20.50;99.90;;;;;;4195104;28;20598;-76
2022/04/25 09:15:53;;;;;;;14.90;4.10;;;20.40;99.90;;;;;;4194185;28;20214;-77
2022/04/25 09:17:57;;;;;;;9.13;3.60;;;20.30;99.90;;;;;;4196113;28;20671;-77
2022/04/25 09:20:00;;;;;;;11.77;3.33;;;20.30;99.90;;;;;;4192763;28;20282;-78
2022/04/25 09:22:02;;;;;;;10.38;3.50;;;20.40;99.90;;;;;;4195860;28;20291;-77
2022/04/25 09:24:20;;;;;;;9.75;3.72;;;20.40;99.90;;;;;;4195226;28;20218;-75
2022/04/25 09:26:27;;;;;;;12.88;3.65;;;20.40;99.90;;;;;;4196306;28;20258;-82
2022/04/25 09:28:30;;;;;;;14.80;3.78;;;20.40;99.90;;;;;;4215754;28;20210;-80
2022/04/25 09:30:35;;;;;;;13.65;3.70;;;20.40;99.90;;;;;;4208917;28;20215;-80
2022/04/25 09:32:37;;;;;;;7.78;3.63;;;20.50;99.90;;;;;;4208157;27;20705;-82
2022/04/25 09:37:00;;;;;;;6.40;3.88;;;20.50;99.90;;;;;;4212043;27;20206;-79
2022/04/25 09:39:02;;;;;;;11.48;4.65;;;20.60;99.90;;;;;;4214954;27;20225;-76
2022/04/25 09:41:08;;;;;;;15.70;7.65;;;20.60;99.90;;;;;;4216895;27;20209;-78
2022/04/25 09:43:12;;;;;;;11.63;8.70;;;20.00;98.10;;;;;;4221830;27;20210;-74
2022/04/25 09:45:15;;;;;;;12.45;9.27;;;19.40;96.70;;;;;;4215263;27;20309;-76
2022/04/25 09:47:26;;;;;;;14.18;9.90;;;18.90;96.50;;;;;;4214482;27;20221;-75
2022/04/25 09:49:28;;;;;;;11.73;9.05;;;18.50;96.40;;;;;;4214683;27;20261;-75
2022/04/25 09:51:31;;;;;;;11.70;10.18;;;18.50;96.00;;;;;;4218257;27;20897;-75
2022/04/25 09:53:45;;;;;;;12.07;9.95;;;18.50;95.80;;;;;;4214069;27;20293;-77
2022/04/25 09:55:47;;;;;;;13.00;9.25;;;18.50;95.80;;;;;;4217082;27;20217;-77
2022/04/25 09:57:51;;;;;;;11.32;9.45;;;18.40;95.90;;;;;;4216744;27;20221;-77
2022/04/25 09:59:56;;;;;;;11.02;8.35;;;18.40;95.30;;;;;;4218053;27;20217;-78
2022/04/25 10:02:07;;;;;;;10.45;8.02;;;18.40;94.90;;;;;;4216362;27;20310;-75
2022/04/25 10:04:31;;;;;;;12.75;6.82;;;18.50;95.40;;;;;;4218732;27;20973;-74
2022/04/25 10:06:35;;;;;;;10.13;5.57;;;19.00;97.60;;;;;;4216970;27;20213;-77
2022/04/25 10:08:38;;;;;;;17.60;6.10;;;19.30;98.50;;;;;;4234031;27;20221;-75
2022/04/25 10:10:45;;;;;;;11.52;4.47;;;19.50;98.60;;;;;;4239797;27;20349;-75
2022/04/25 10:12:48;;;;;;;10.50;5.13;;;19.60;98.60;;;;;;4237908;27;20269;-75
2022/04/25 10:14:52;;;;;;;6.90;4.15;;;19.70;98.20;;;;;;4242384;27;20273;-75
2022/04/25 10:16:56;;;;;;;9.25;4.75;;;19.90;98.60;;;;;;4237948;27;20648;-76
2022/04/25 10:18:59;;;;;;;7.03;4.28;;;19.90;98.50;;;;;;4235493;27;20236;-77
2022/04/25 10:21:04;;;;;;;18.75;5.45;;;20.00;98.50;;;;;;4233316;27;20266;-76
2022/04/25 10:23:09;;;;;;;10.95;5.32;;;20.00;98.10;;;;;;4239897;27;20628;-77
2022/04/25 10:25:11;;;;;;;11.00;4.80;;;20.00;97.90;;;;;;4231673;27;20275;-77
2022/04/25 10:27:15;;;;;;;12.23;6.68;;;20.00;97.40;;;;;;4240194;27;20213;-77
2022/04/25 10:29:24;;;;;;;14.52;7.00;;;20.00;95.90;;;;;;4237073;27;20225;-77
2022/04/25 10:31:29;;;;;;;12.27;7.53;;;19.90;94.80;;;;;;4232518;27;20235;-77
2022/04/25 10:33:50;;;;;;;14.15;7.63;;;19.90;94.70;;;;;;4236492;27;20700;-77
2022/04/25 10:35:53;;;;;;;11.25;6.85;;;19.90;94.80;;;;;;4236534;27;20217;-77
2022/04/25 10:37:55;;;;;;;10.73;5.18;;;20.00;95.20;;;;;;4240693;27;20213;-77
2022/04/25 10:39:59;;;;;;;8.23;5.13;;;19.90;96.60;;;;;;4232003;27;20258;-78
2022/04/25 10:44:53;;;;;;;8.20;4.80;;;20.00;97.20;;;;;;4234114;27;20201;-77
2022/04/25 10:47:15;;;;;;;8.98;4.18;;;19.90;97.50;;;;;;4231401;27;20222;-80
2022/04/25 10:49:30;;;;;;;7.38;4.05;;;20.00;97.40;;;;;;4232391;27;20310;-78
2022/04/25 10:51:43;;;;;;;6.68;4.43;;;20.00;97.40;;;;;;4234360;27;20222;-78
2022/04/25 10:54:05;;;;;;;9.07;4.40;;;20.00;97.40;;;;;;4234426;27;21205;-76
2022/04/25 10:56:09;;;;;;;5.90;3.95;;;20.10;97.20;;;;;;4221420;27;20274;-77
2022/04/25 10:58:19;;;;;;;7.55;4.20;;;20.10;97.30;;;;;;4214813;27;20217;-78
2022/04/25 11:00:45;;;;;;;4.82;3.75;;;20.10;97.60;;;;;;4207936;27;20221;-77
2022/04/25 11:03:04;;;;;;;6.35;4.43;;;20.20;97.60;;;;;;4218815;27;20728;-77
2022/04/25 11:05:33;;;;;;;6.35;3.95;;;20.20;97.40;;;;;;4216982;27;20208;-79
2022/04/25 11:07:37;;;;;;;7.50;3.85;;;20.30;97.40;;;;;;4216501;27;20852;-78
2022/04/25 11:09:40;;;;;;;6.88;3.42;;;20.30;97.20;;;;;;4216770;27;20209;-78